Time;durP1;ratioP1;P1;durP2;ratioP2;P2;SDS_P1;SDS_P2;PMS_P1;PMS_P2;Temp;Humidity;BMP_temperature;BMP_pressure;BME280_temperature;BME280_humidity;BME280_pressure;Samples;Min_cycle;Max_cycle;Signal;HPM_P1;HPM_P2
2021/12/07 00:02:05;;;;;;;80.70;29.17;;;2.80;99.90;;;3.11;62.46;98289.34;6044768;23;20023;-82
2021/12/07 00:04:31;;;;;;;378.50;110.47;;;2.80;99.90;;;3.13;62.83;98282.69;6055719;23;20019;-82
2021/12/07 00:06:57;;;;;;;54.92;22.85;;;2.80;99.90;;;3.10;62.58;98280.47;6045031;23;20049;-82
2021/12/07 00:09:23;;;;;;;242.63;66.88;;;2.90;99.90;;;3.08;62.81;98285.28;6044411;23;20019;-82
2021/12/07 00:11:49;;;;;;;58.30;27.38;;;2.80;99.90;;;3.11;62.74;98281.31;6021470;23;20347;-82
2021/12/07 00:14:23;;;;;;;165.75;45.80;;;2.90;99.90;;;3.13;62.71;98277.34;6044208;23;20074;-82
2021/12/07 00:16:51;;;;;;;63.67;25.15;;;2.90;99.90;;;3.09;62.00;98276.19;6046609;23;20090;-82
2021/12/07 00:19:17;;;;;;;48.13;19.35;;;2.90;99.90;;;3.11;62.52;98271.41;6042994;23;20405;-82
2021/12/07 00:21:43;;;;;;;31.63;17.33;;;2.80;99.90;;;3.11;62.60;98268.72;6043011;23;20074;-82
2021/12/07 00:24:11;;;;;;;35.17;17.80;;;2.90;99.90;;;3.06;62.61;98254.41;6019466;23;20049;-82
2021/12/07 00:26:41;;;;;;;31.80;17.30;;;2.90;99.90;;;3.12;62.58;98264.97;6043501;23;20029;-82
2021/12/07 00:29:08;;;;;;;37.80;19.63;;;2.90;99.90;;;3.14;62.28;98257.53;6053146;23;20344;-82
2021/12/07 00:31:40;;;;;;;37.75;19.17;;;2.90;99.90;;;3.16;62.65;98270.69;6042711;23;20022;-82
2021/12/07 00:37:02;;;;;;;34.17;18.35;;;2.90;99.90;;;3.13;62.84;98266.63;5949411;23;20111;-83
2021/12/07 00:39:28;;;;;;;33.63;18.40;;;3.00;99.90;;;3.15;62.73;98269.03;6043847;23;20038;-82
2021/12/07 00:41:55;;;;;;;33.35;20.38;;;3.00;99.90;;;3.16;62.17;98270.69;6043179;23;20109;-82
2021/12/07 00:44:22;;;;;;;36.78;20.10;;;3.00;99.90;;;3.11;62.44;98265.22;6019064;23;20054;-82
2021/12/07 00:46:49;;;;;;;42.50;24.23;;;3.00;99.90;;;3.01;62.57;98269.31;6021213;23;20102;-83
2021/12/07 00:49:14;;;;;;;61.15;25.42;;;2.90;99.90;;;3.01;62.66;98268.53;6023082;23;20026;-83
2021/12/07 00:51:41;;;;;;;305.67;85.35;;;2.90;99.90;;;2.96;63.33;98279.94;6043353;23;20093;-81
2021/12/07 00:54:07;;;;;;;47.83;20.98;;;2.90;99.90;;;2.97;63.11;98281.56;6043538;23;20559;-82
2021/12/07 00:56:33;;;;;;;38.22;19.23;;;2.80;99.90;;;2.90;62.79;98274.69;6043737;23;20039;-82
2021/12/07 00:58:59;;;;;;;39.33;20.50;;;2.80;99.90;;;2.89;63.08;98265.06;6019799;23;20043;-82
2021/12/07 01:01:25;;;;;;;36.17;20.00;;;2.80;99.90;;;2.95;62.69;98266.78;6043859;23;20018;-82
2021/12/07 01:03:51;;;;;;;29.13;17.50;;;2.80;99.90;;;2.98;62.66;98259.09;6044113;23;20097;-82
2021/12/07 01:06:29;;;;;;;34.88;19.63;;;2.80;99.90;;;2.99;62.69;98258.03;6044978;23;20027;-82
2021/12/07 01:25:19;;;;;;;45.97;23.02;;;2.60;99.90;;;2.65;63.10;98251.72;6055841;23;20023;-82
2021/12/07 01:27:48;;;;;;;307.15;121.50;;;2.60;99.90;;;2.61;63.55;98248.69;6042753;23;20034;-81
2021/12/07 01:30:21;;;;;;;89.00;34.75;;;2.50;99.90;;;2.65;63.55;98246.38;6042782;23;20098;-82
2021/12/07 01:33:08;;;;;;;39.83;20.38;;;2.50;99.90;;;2.66;63.36;98244.50;6045170;23;20093;-82
2021/12/07 01:39:35;;;;;;;53.13;24.75;;;2.50;99.90;;;2.74;62.90;98249.47;5981837;24;20050;-82
2021/12/07 01:47:03;;;;;;;790.47;392.85;;;2.60;99.90;;;2.81;63.39;98269.72;6045313;23;20022;-82
2021/12/07 02:00:10;;;;;;;94.18;33.50;;;2.60;99.90;;;2.69;63.06;98238.66;6049783;23;20098;-82
2021/12/07 02:02:36;;;;;;;219.32;87.60;;;2.60;99.90;;;2.68;62.72;98240.53;6045661;23;20026;-82
2021/12/07 02:05:03;;;;;;;48.67;22.27;;;2.60;99.90;;;2.67;63.09;98230.88;6045720;23;20023;-82
2021/12/07 02:07:30;;;;;;;51.72;21.17;;;2.60;99.90;;;2.73;63.32;98218.41;6069333;23;20015;-82
2021/12/07 02:10:02;;;;;;;67.95;27.63;;;2.60;99.90;;;2.69;63.07;98218.03;6022427;23;20351;-82
2021/12/07 02:12:29;;;;;;;41.75;20.38;;;2.60;99.90;;;2.68;63.51;98215.63;6057478;23;20067;-82
2021/12/07 02:14:55;;;;;;;38.92;20.75;;;2.60;99.90;;;2.68;63.23;98216.44;6044667;23;20082;-82
2021/12/07 02:17:24;;;;;;;47.33;23.77;;;2.60;99.90;;;2.64;62.82;98227.84;6044650;23;20018;-82
2021/12/07 02:19:50;;;;;;;46.95;22.75;;;2.60;99.90;;;2.59;63.75;98224.00;6045250;23;20027;-82
2021/12/07 02:22:17;;;;;;;55.15;26.83;;;2.50;99.90;;;2.63;63.59;98223.53;6044547;23;20093;-82
2021/12/07 02:24:43;;;;;;;49.97;24.48;;;2.50;99.90;;;2.59;63.84;98228.53;6046021;23;20030;-82
2021/12/07 02:27:09;;;;;;;46.55;24.83;;;2.50;99.90;;;2.55;63.24;98227.41;6044528;23;20355;-82
2021/12/07 02:29:35;;;;;;;45.47;23.45;;;2.50;99.90;;;2.58;63.68;98224.25;6044407;23;20114;-82
2021/12/07 02:32:03;;;;;;;45.60;23.25;;;2.50;99.90;;;2.64;63.65;98234.00;6068100;23;20022;-82
2021/12/07 02:34:29;;;;;;;47.42;24.15;;;2.50;99.90;;;2.61;63.39;98231.81;6045367;23;20100;-82
2021/12/07 02:36:55;;;;;;;44.35;22.35;;;2.50;99.90;;;2.60;64.08;98232.88;6020983;23;20143;-82
2021/12/07 02:39:36;;;;;;;48.30;23.20;;;2.50;99.90;;;2.65;63.53;98229.50;6021472;23;20367;-82
2021/12/07 02:42:02;;;;;;;84.65;39.30;;;2.50;99.90;;;2.74;63.91;98233.41;6056506;23;20042;-82
2021/12/07 02:44:28;;;;;;;92.65;38.33;;;2.50;99.90;;;2.80;63.81;98229.81;6045332;23;20019;-82
2021/12/07 02:46:54;;;;;;;83.53;36.78;;;2.60;99.90;;;2.90;63.48;98234.53;6045430;23;20343;-81
2021/12/07 02:49:21;;;;;;;51.83;24.85;;;2.70;99.90;;;2.87;62.89;98235.81;6046844;23;20061;-82
2021/12/07 02:51:47;;;;;;;47.25;24.50;;;2.70;99.90;;;2.72;62.57;98236.34;6046131;23;20443;-82
2021/12/07 02:54:13;;;;;;;45.35;22.88;;;2.80;99.90;;;2.68;63.35;98232.50;6044999;23;20419;-82
2021/12/07 02:56:39;;;;;;;36.03;20.25;;;2.70;99.90;;;2.58;63.47;98230.41;6043299;23;20022;-82
2021/12/07 02:59:05;;;;;;;48.40;24.40;;;2.60;99.90;;;2.53;63.06;98230.31;6019868;23;20022;-81
2021/12/07 03:01:35;;;;;;;47.58;22.60;;;2.50;99.90;;;2.59;63.78;98226.66;6067102;23;20030;-81
2021/12/07 03:06:38;;;;;;;42.63;21.85;;;2.60;99.90;;;2.77;63.01;98232.94;6042876;23;20018;-81
2021/12/07 03:09:35;;;;;;;40.65;20.23;;;2.60;99.90;;;2.83;62.33;98238.16;6054971;23;20098;-82
2021/12/07 03:28:19;;;;;;;49.78;24.25;;;2.70;99.90;;;2.75;62.61;98249.25;6053144;23;20027;-82
2021/12/07 03:30:45;;;;;;;50.38;23.95;;;2.70;99.90;;;2.76;62.52;98256.22;6042799;23;20076;-82
2021/12/07 03:33:11;;;;;;;46.13;23.75;;;2.70;99.90;;;2.78;62.59;98253.31;6065214;23;20023;-82
2021/12/07 03:35:37;;;;;;;51.08;23.13;;;2.70;99.90;;;2.88;62.52;98255.41;6040796;23;20457;-82
2021/12/07 03:38:04;;;;;;;46.95;22.33;;;2.70;99.90;;;2.87;62.18;98259.09;6040443;23;20090;-82
2021/12/07 03:40:30;;;;;;;60.25;27.10;;;2.80;99.90;;;2.82;62.66;98259.81;6039773;23;20095;-82
2021/12/07 03:42:57;;;;;;;77.63;36.80;;;2.80;99.90;;;2.86;62.33;98260.97;6063840;23;20023;-82
2021/12/07 03:45:24;;;;;;;55.22;29.38;;;2.70;99.90;;;2.85;62.24;98259.38;6040267;23;20045;-82
2021/12/07 03:47:50;;;;;;;94.53;40.85;;;2.80;99.90;;;2.96;62.52;98260.38;6040624;23;20402;-82
2021/12/07 03:50:16;;;;;;;123.75;47.20;;;2.80;99.90;;;3.00;62.29;98256.16;6040666;23;20018;-82
2021/12/07 03:52:42;;;;;;;86.22;34.13;;;2.80;99.90;;;2.96;62.50;98255.03;6017401;23;20057;-82
2021/12/07 03:55:08;;;;;;;102.18;40.45;;;2.90;99.90;;;2.99;62.52;98254.53;6039842;23;20023;-82
2021/12/07 03:57:34;;;;;;;92.88;37.05;;;2.90;99.90;;;3.01;62.51;98255.13;6039918;23;20139;-82
2021/12/07 04:00:00;;;;;;;97.00;40.13;;;2.90;99.90;;;3.01;62.72;98260.47;6040248;23;20019;-82
2021/12/07 04:02:26;;;;;;;51.05;26.13;;;2.90;99.90;;;3.04;62.34;98263.47;6040032;23;20086;-82
2021/12/07 04:04:59;;;;;;;46.55;23.98;;;2.90;99.90;;;2.98;62.36;98264.44;6040200;23;20451;-82
2021/12/07 04:07:25;;;;;;;57.15;26.52;;;2.90;99.90;;;3.07;62.37;98264.88;6075048;23;20098;-82
2021/12/07 04:09:52;;;;;;;52.53;28.10;;;2.90;99.90;;;3.07;62.53;98272.09;6016794;23;20367;-82
2021/12/07 04:12:17;;;;;;;51.72;25.52;;;2.90;99.90;;;2.99;62.38;98282.16;6015166;23;20022;-82
2021/12/07 04:14:44;;;;;;;61.40;30.75;;;3.00;99.90;;;2.90;63.29;98277.38;6041501;23;20384;-82
2021/12/07 04:17:09;;;;;;;109.15;60.05;;;2.90;99.90;;;2.80;63.12;98280.69;6041532;23;20034;-82
2021/12/07 04:19:35;;;;;;;64.82;31.58;;;2.90;99.90;;;2.81;63.09;98280.44;6042013;23;20019;-82
2021/12/07 04:22:01;;;;;;;65.15;32.85;;;2.80;99.90;;;2.74;63.80;98287.78;6040861;23;20027;-83
2021/12/07 04:24:28;;;;;;;48.53;26.17;;;2.80;99.90;;;2.75;63.78;98286.75;6042686;23;20078;-82
2021/12/07 04:26:55;;;;;;;63.58;30.73;;;2.80;99.90;;;2.65;63.51;98291.06;6040655;23;20018;-82
2021/12/07 04:29:21;;;;;;;142.07;77.90;;;2.70;99.90;;;2.59;63.94;98284.78;6041176;23;20075;-82
2021/12/07 04:31:47;;;;;;;78.13;33.95;;;2.70;99.90;;;2.57;64.67;98287.69;6042299;23;20473;-82
2021/12/07 04:34:13;;;;;;;66.50;29.00;;;2.60;99.90;;;2.61;64.53;98290.72;6041251;23;20023;-82
2021/12/07 04:36:39;;;;;;;69.68;28.63;;;2.60;99.90;;;2.56;64.71;98283.38;6040709;23;20070;-82
2021/12/07 04:39:05;;;;;;;70.03;29.45;;;2.60;99.90;;;2.46;64.34;98279.66;6049905;23;20442;-82
2021/12/07 04:41:33;;;;;;;67.63;29.67;;;2.50;99.90;;;2.45;64.97;98283.41;6041964;23;20529;-81
2021/12/07 04:44:02;;;;;;;71.13;28.38;;;2.50;99.90;;;2.43;65.23;98275.59;6041866;23;20042;-81
2021/12/07 04:46:41;;;;;;;57.55;27.33;;;2.50;99.90;;;2.42;65.31;98275.81;6042623;23;20019;-81
2021/12/07 04:59:39;;;;;;;72.25;28.38;;;2.30;99.90;;;2.29;65.63;98287.56;6038026;23;20019;-81
2021/12/07 05:02:07;;;;;;;67.57;27.63;;;2.20;99.90;;;2.23;65.42;98292.00;6038958;23;20047;-81
2021/12/07 05:04:35;;;;;;;72.40;28.33;;;2.20;99.90;;;2.23;65.76;98286.66;5990114;23;20030;-81
2021/12/07 05:07:19;;;;;;;68.22;26.98;;;2.30;99.90;;;2.31;65.61;98290.84;6040916;23;20023;-82
2021/12/07 05:12:28;;;;;;;67.70;27.58;;;2.30;99.90;;;2.38;65.84;98287.00;6043160;23;20054;-81
2021/12/07 05:15:07;;;;;;;62.70;27.70;;;2.30;99.90;;;2.37;65.59;98293.41;6053605;23;20023;-81
2021/12/07 05:34:29;;;;;;;79.38;33.05;;;2.30;99.90;;;2.27;65.79;98301.19;6053242;23;20577;-81
2021/12/07 05:39:42;;;;;;;64.10;27.45;;;2.40;99.90;;;2.48;65.64;98281.06;6073507;23;20090;-81
2021/12/07 05:42:09;;;;;;;74.05;29.00;;;2.40;99.90;;;2.55;65.54;98275.59;6040144;23;20073;-80
2021/12/07 05:44:35;;;;;;;69.05;28.17;;;2.50;99.90;;;2.52;65.73;98281.41;6039067;23;20019;-80
2021/12/07 05:47:04;;;;;;;77.05;28.75;;;2.50;99.90;;;2.49;65.40;98277.31;6040405;23;20118;-81
2021/12/07 05:49:30;;;;;;;75.00;28.55;;;2.50;99.90;;;2.48;65.60;98275.72;6040099;23;20599;-81
2021/12/07 05:51:55;;;;;;;71.53;30.10;;;2.50;99.90;;;2.53;64.89;98269.66;6017598;23;20051;-80
2021/12/07 05:54:22;;;;;;;59.92;29.05;;;2.50;99.90;;;2.47;65.27;98265.22;6040023;23;20030;-80
2021/12/07 05:56:48;;;;;;;70.30;28.90;;;2.50;99.90;;;2.48;65.04;98275.72;6039710;23;20019;-81
2021/12/07 05:59:14;;;;;;;66.80;29.88;;;2.50;99.90;;;2.42;65.41;98268.63;6039959;23;20026;-80
2021/12/07 06:01:40;;;;;;;82.68;32.58;;;2.50;99.90;;;2.41;65.11;98275.00;6039018;23;20019;-80
2021/12/07 06:04:06;;;;;;;96.38;33.88;;;2.50;99.90;;;2.44;65.18;98284.44;6039980;23;20066;-80
2021/12/07 06:06:32;;;;;;;69.63;28.60;;;2.50;99.90;;;2.44;64.47;98284.44;6064092;23;20029;-80
2021/12/07 06:08:58;;;;;;;62.65;27.05;;;2.50;99.90;;;2.46;65.05;98277.00;6039857;23;20408;-80
2021/12/07 06:11:24;;;;;;;68.00;26.90;;;2.50;99.90;;;2.38;65.19;98287.00;6039912;23;20074;-80
2021/12/07 06:13:51;;;;;;;61.78;27.90;;;2.50;99.90;;;2.28;64.99;98281.41;6064356;23;20443;-80
2021/12/07 06:16:17;;;;;;;64.47;26.90;;;2.40;99.90;;;2.36;65.29;98282.94;6041172;23;20045;-80
2021/12/07 06:18:43;;;;;;;64.03;28.05;;;2.40;99.90;;;2.43;64.85;98283.63;6062755;23;20359;-80
2021/12/07 06:21:10;;;;;;;60.08;27.95;;;2.40;99.90;;;2.45;65.29;98286.09;6064969;23;20110;-80
2021/12/07 06:23:37;;;;;;;61.35;28.27;;;2.40;99.90;;;2.53;65.00;98289.22;6040678;23;20094;-81
2021/12/07 06:26:03;;;;;;;73.32;30.10;;;2.40;99.90;;;2.50;64.56;98292.34;6040631;23;20022;-81
2021/12/07 06:28:29;;;;;;;64.50;27.55;;;2.50;99.90;;;2.43;65.25;98283.63;6016604;23;20644;-80
2021/12/07 06:30:55;;;;;;;68.53;29.67;;;2.50;99.90;;;2.43;65.00;98288.16;6040225;23;20486;-81
2021/12/07 06:33:23;;;;;;;63.78;26.83;;;2.50;99.90;;;2.41;65.13;98291.06;6040296;23;20014;-80
2021/12/07 06:35:49;;;;;;;59.55;25.08;;;2.50;99.90;;;2.50;64.29;98288.88;6016695;23;20350;-81
2021/12/07 06:38:18;;;;;;;64.47;27.30;;;2.50;99.90;;;2.48;64.87;98291.78;6016913;23;20102;-81
2021/12/07 06:40:44;;;;;;;55.85;25.75;;;2.50;99.90;;;2.43;64.49;98288.16;6041095;23;20051;-79
2021/12/07 06:43:11;;;;;;;77.30;30.75;;;2.50;99.90;;;2.42;64.68;98294.56;6037017;23;20031;-79
2021/12/07 06:45:37;;;;;;;84.97;34.55;;;2.50;99.90;;;2.47;65.24;98292.00;6015361;23;20412;-79
2021/12/07 06:48:03;;;;;;;77.53;35.47;;;2.50;99.90;;;2.60;65.35;98305.16;6039266;23;20113;-78
2021/12/07 06:50:29;;;;;;;69.30;29.08;;;2.50;99.90;;;2.58;65.28;98309.94;6041262;23;20198;-78
2021/12/07 06:52:55;;;;;;;63.80;28.83;;;2.60;99.90;;;2.69;64.54;98308.28;6045867;23;20038;-79
2021/12/07 06:55:21;;;;;;;61.22;31.08;;;2.60;99.90;;;2.70;64.61;98304.56;6043032;23;20023;-78
2021/12/07 06:57:47;;;;;;;64.57;30.23;;;2.70;99.90;;;2.74;64.12;98311.88;6038729;23;20023;-79
2021/12/07 07:00:13;;;;;;;63.72;28.08;;;2.70;99.90;;;2.65;63.86;98313.31;6017311;23;20090;-78
2021/12/07 07:02:39;;;;;;;59.15;28.27;;;2.70;99.90;;;2.66;64.20;98322.16;6038200;23;20022;-79
2021/12/07 07:05:06;;;;;;;76.28;35.58;;;2.70;99.90;;;2.67;64.36;98318.41;6037233;23;20029;-79
2021/12/07 07:07:34;;;;;;;62.05;28.27;;;2.70;99.90;;;2.67;63.31;98321.09;6061792;23;20490;-79
2021/12/07 07:10:00;;;;;;;57.15;25.35;;;2.70;99.90;;;2.65;63.05;98332.06;6061786;23;20332;-79
2021/12/07 07:12:26;;;;;;;68.45;30.05;;;2.70;99.90;;;2.60;63.67;98323.91;6038578;23;20019;-79
2021/12/07 07:14:52;;;;;;;62.30;27.77;;;2.70;99.90;;;2.64;63.16;98335.75;6038424;23;20142;-79
2021/12/07 07:17:18;;;;;;;57.65;24.65;;;2.70;99.90;;;2.69;63.80;98335.06;6038635;23;20019;-79
2021/12/07 07:19:44;;;;;;;52.80;25.00;;;2.70;99.90;;;2.74;64.04;98338.66;6036425;23;20549;-79
2021/12/07 07:22:10;;;;;;;60.90;28.92;;;2.80;99.90;;;2.77;63.78;98343.59;6038051;23;20069;-79
2021/12/07 07:24:37;;;;;;;54.42;26.70;;;2.80;99.90;;;2.73;63.91;98346.97;6060457;23;20093;-79
2021/12/07 07:27:03;;;;;;;57.08;30.48;;;2.80;99.90;;;2.76;63.61;98344.59;6036519;23;20022;-79
2021/12/07 07:29:29;;;;;;;70.10;32.33;;;2.80;99.90;;;2.68;63.09;98353.00;6036095;23;20023;-79
2021/12/07 07:31:55;;;;;;;70.05;32.08;;;2.80;99.90;;;2.61;62.61;98352.31;6035196;23;20054;-80
2021/12/07 07:34:21;;;;;;;68.80;29.95;;;2.80;99.90;;;2.61;63.06;98361.16;6060079;23;20609;-80
2021/12/07 07:36:47;;;;;;;170.90;73.35;;;2.80;99.90;;;2.59;62.84;98352.53;6036725;23;20419;-79
2021/12/07 07:39:15;;;;;;;187.73;85.82;;;2.80;99.90;;;2.56;63.05;98353.00;6014918;23;20042;-79
2021/12/07 07:41:41;;;;;;;149.32;71.25;;;2.70;99.90;;;2.64;63.03;98343.78;6059530;23;20054;-79
2021/12/07 07:44:10;;;;;;;103.57;46.75;;;2.70;99.90;;;2.68;63.24;98350.31;6035753;23;20022;-79
2021/12/07 07:46:36;;;;;;;93.50;41.28;;;2.80;99.90;;;2.67;63.36;98345.19;6060034;23;20418;-79
2021/12/07 07:49:03;;;;;;;81.20;40.80;;;2.80;99.90;;;2.73;63.05;98342.41;6013103;23;20437;-79
2021/12/07 07:51:29;;;;;;;76.50;41.03;;;2.80;99.90;;;2.73;62.58;98336.25;6036001;23;20097;-79
2021/12/07 07:53:56;;;;;;;60.50;31.98;;;2.80;99.90;;;2.69;62.82;98349.25;6036413;23;20019;-79
2021/12/07 07:56:22;;;;;;;81.38;43.63;;;2.80;99.90;;;2.74;62.15;98349.38;6059926;23;20039;-79
2021/12/07 07:58:48;;;;;;;71.22;36.80;;;2.80;99.90;;;2.76;62.01;98349.97;6036664;23;20522;-79
2021/12/07 08:01:14;;;;;;;60.38;29.50;;;2.80;99.90;;;2.73;61.63;98352.31;6036817;23;20114;-79
2021/12/07 08:03:40;;;;;;;77.72;37.53;;;2.90;99.90;;;2.77;61.79;98351.63;6037586;23;20039;-79
2021/12/07 08:06:07;;;;;;;63.17;29.13;;;2.90;99.90;;;2.91;61.72;98349.50;6038132;23;20043;-79
2021/12/07 08:08:32;;;;;;;62.70;30.00;;;2.90;99.90;;;2.91;61.70;98349.50;6037270;23;20034;-79
2021/12/07 08:10:58;;;;;;;54.70;27.33;;;3.00;99.90;;;2.90;61.63;98352.41;6038586;23;20014;-79
2021/12/07 08:13:25;;;;;;;66.55;31.00;;;3.00;99.90;;;2.98;62.00;98365.47;6037299;23;20380;-79
2021/12/07 08:15:51;;;;;;;66.97;31.00;;;3.00;99.90;;;3.04;61.59;98359.16;6013412;23;20035;-79
2021/12/07 08:18:18;;;;;;;58.25;26.83;;;3.10;99.90;;;2.97;61.61;98353.91;6034898;23;20404;-79
2021/12/07 08:20:44;;;;;;;66.75;27.42;;;3.10;99.90;;;2.93;61.36;98363.47;6060860;23;20101;-79
2021/12/07 08:23:10;;;;;;;55.45;27.80;;;3.10;99.90;;;2.91;60.99;98359.41;6036174;23;20414;-79
2021/12/07 08:25:43;;;;;;;62.08;28.08;;;3.10;99.90;;;2.98;61.40;98360.09;6037237;23;20078;-79
2021/12/07 08:28:12;;;;;;;58.47;26.15;;;3.10;99.90;;;3.00;61.51;98363.34;6023607;23;20458;-79
2021/12/07 08:30:39;;;;;;;52.72;24.20;;;3.10;99.90;;;3.07;61.16;98353.31;6036857;23;20021;-79
2021/12/07 08:33:05;;;;;;;61.08;28.13;;;3.20;99.90;;;3.09;61.07;98356.56;6037190;23;20435;-79
2021/12/07 08:35:31;;;;;;;51.83;25.02;;;3.20;99.90;;;3.15;60.55;98366.34;6036622;23;20057;-79
2021/12/07 08:37:57;;;;;;;59.75;28.67;;;3.20;99.90;;;3.16;60.44;98359.94;6059896;23;20647;-79
2021/12/07 08:40:24;;;;;;;64.93;28.35;;;3.30;99.90;;;3.18;61.10;98354.31;6036257;23;20054;-79
2021/12/07 08:42:51;;;;;;;61.30;27.40;;;3.30;99.90;;;3.18;60.53;98365.88;6035599;23;20085;-79
2021/12/07 08:45:17;;;;;;;63.05;28.88;;;3.40;99.90;;;3.25;60.70;98368.41;6034340;23;20019;-79
2021/12/07 08:47:44;;;;;;;54.85;24.75;;;3.40;99.90;;;3.23;60.16;98362.47;6059618;23;20026;-79
2021/12/07 08:50:21;;;;;;;57.08;27.27;;;3.40;99.90;;;3.31;59.94;98364.81;6035888;23;20410;-79
2021/12/07 08:52:48;;;;;;;60.10;27.83;;;3.40;99.90;;;3.50;60.87;98361.94;6070442;23;20483;-79
2021/12/07 09:00:29;;;;;;;57.80;26.98;;;3.80;99.90;;;3.72;59.21;98354.88;6040248;23;20063;-80
2021/12/07 09:02:55;;;;;;;57.80;29.25;;;3.90;99.90;;;3.72;59.14;98352.19;6036756;23;20023;-79
2021/12/07 09:05:23;;;;;;;50.90;27.45;;;4.00;99.90;;;3.74;58.94;98358.13;6036328;23;20366;-79
2021/12/07 09:07:50;;;;;;;58.15;27.83;;;4.00;99.90;;;3.94;59.32;98352.28;6035630;23;20098;-79
2021/12/07 09:10:16;;;;;;;57.20;26.83;;;4.00;99.90;;;4.00;58.43;98356.72;6035457;23;20415;-79
2021/12/07 09:12:41;;;;;;;60.45;28.23;;;4.20;99.90;;;4.06;58.34;98347.69;6059470;23;20023;-78
2021/12/07 09:15:08;;;;;;;60.45;31.52;;;4.30;99.90;;;4.16;58.26;98352.41;6034925;23;20050;-78
2021/12/07 09:17:35;;;;;;;54.92;26.73;;;4.30;99.90;;;4.20;56.87;98353.56;6034815;23;20022;-78
2021/12/07 09:20:10;;;;;;;63.25;28.00;;;4.40;99.90;;;4.35;56.96;98358.34;6008980;23;20023;-78
2021/12/07 09:22:36;;;;;;;66.30;31.83;;;4.50;99.90;;;4.57;57.10;98356.56;6036118;23;20379;-78
2021/12/07 09:25:03;;;;;;;52.33;25.40;;;4.70;99.90;;;4.66;56.93;98356.97;6035211;23;20027;-78
2021/12/07 09:27:29;;;;;;;55.25;27.48;;;4.80;99.90;;;4.50;56.63;98353.25;6034448;23;20022;-78
2021/12/07 09:29:56;;;;;;;53.22;26.13;;;4.80;99.90;;;4.51;56.50;98359.44;6058822;23;20105;-78
2021/12/07 09:32:21;;;;;;;53.38;29.02;;;4.80;99.90;;;4.49;56.31;98358.84;6059004;23;20622;-78
2021/12/07 09:34:48;;;;;;;54.28;29.33;;;4.80;99.90;;;4.62;56.07;98360.41;6035968;23;20054;-78
2021/12/07 09:37:14;;;;;;;49.42;25.38;;;4.80;99.90;;;4.55;55.81;98350.66;6035011;23;20389;-78
2021/12/07 09:39:40;;;;;;;55.25;26.98;;;4.90;99.90;;;4.51;55.30;98362.94;6011031;23;20029;-78
2021/12/07 09:42:06;;;;;;;49.83;26.40;;;4.80;99.90;;;4.38;55.29;98354.41;6010842;23;20054;-78
2021/12/07 09:44:35;;;;;;;53.47;26.15;;;4.80;99.90;;;4.42;55.45;98353.63;6033412;23;20059;-78
2021/12/07 09:47:01;;;;;;;54.97;27.00;;;4.70;99.90;;;4.48;55.98;98363.41;6034887;23;20032;-78
2021/12/07 09:49:27;;;;;;;50.45;26.33;;;4.80;99.90;;;4.47;55.46;98360.97;6011122;23;20101;-78
2021/12/07 09:51:54;;;;;;;60.83;26.45;;;4.90;99.90;;;4.53;55.44;98354.63;6035181;23;20109;-78
2021/12/07 09:54:20;;;;;;;52.78;26.77;;;4.90;99.90;;;4.61;55.28;98358.78;6011576;23;20363;-78
2021/12/07 09:56:45;;;;;;;63.45;29.45;;;4.90;99.90;;;4.56;54.46;98354.94;6036258;23;20022;-78
2021/12/07 09:59:12;;;;;;;66.88;31.05;;;4.90;99.90;;;4.50;55.09;98355.94;6036136;23;20438;-78
2021/12/07 10:01:41;;;;;;;68.57;31.20;;;4.90;99.90;;;4.35;54.84;98359.19;6013007;23;20019;-78
2021/12/07 10:04:08;;;;;;;56.33;26.27;;;4.90;99.90;;;4.33;54.68;98365.88;6036147;23;20455;-78
2021/12/07 10:06:34;;;;;;;58.78;28.77;;;4.70;99.90;;;4.19;55.14;98367.22;6058319;23;20078;-78
2021/12/07 10:09:00;;;;;;;46.10;24.83;;;4.60;99.90;;;4.20;54.85;98361.63;6035941;23;20114;-78
2021/12/07 10:11:26;;;;;;;48.10;24.60;;;4.50;99.90;;;4.16;55.25;98373.91;6037712;23;20454;-78
2021/12/07 10:13:56;;;;;;;50.80;24.30;;;4.50;99.90;;;4.03;55.71;98366.16;6037368;23;20022;-78
2021/12/07 10:16:23;;;;;;;55.92;27.10;;;4.40;99.90;;;3.99;56.13;98359.63;6060319;23;20030;-78
2021/12/07 10:18:49;;;;;;;53.47;25.25;;;4.30;99.90;;;3.99;56.10;98355.06;6032910;23;20025;-78
2021/12/07 10:21:23;;;;;;;50.28;26.25;;;4.30;99.90;;;3.97;56.75;98349.16;6036289;23;20087;-78
2021/12/07 10:24:06;;;;;;;64.15;30.25;;;4.30;99.90;;;4.04;55.99;98354.34;6017003;23;20328;-78
2021/12/07 10:26:41;;;;;;;58.13;26.77;;;4.30;99.90;;;4.20;55.91;98353.56;6049799;23;20081;-78
2021/12/07 10:29:20;;;;;;;56.05;26.23;;;4.30;99.90;;;4.26;56.19;98357.16;6048629;23;20458;-78
2021/12/07 10:31:50;;;;;;;59.92;28.48;;;4.50;99.90;;;4.33;55.69;98361.31;6072426;23;20065;-79
2021/12/07 10:34:21;;;;;;;52.85;26.90;;;4.50;99.90;;;4.39;55.75;98359.50;6037974;23;20089;-78
2021/12/07 10:36:50;;;;;;;54.55;27.83;;;4.50;99.90;;;4.32;55.53;98356.97;6063573;23;20033;-77
2021/12/07 10:39:27;;;;;;;49.75;27.55;;;4.60;99.90;;;4.33;55.60;98363.97;6038437;23;20026;-77
2021/12/07 10:41:59;;;;;;;63.42;27.30;;;4.60;99.90;;;4.36;55.48;98349.25;6046660;23;20470;-77
2021/12/07 10:44:30;;;;;;;57.83;27.05;;;4.60;99.90;;;4.23;56.26;98350.41;6069781;23;20029;-77
2021/12/07 10:46:58;;;;;;;51.83;26.52;;;4.60;99.90;;;4.23;55.82;98363.00;6035439;23;20026;-77
2021/12/07 10:49:46;;;;;;;54.92;27.77;;;4.50;99.90;;;4.15;56.29;98364.22;6037744;23;20027;-77
2021/12/07 10:52:29;;;;;;;57.45;28.35;;;4.50;99.90;;;4.01;56.37;98360.22;6060850;23;20043;-77
2021/12/07 10:55:24;;;;;;;57.00;28.02;;;4.40;99.90;;;4.05;56.95;98361.38;6070658;23;20055;-77
2021/12/07 10:58:01;;;;;;;57.65;26.52;;;4.30;99.90;;;4.16;56.71;98354.28;6059558;23;20023;-77
2021/12/07 11:00:30;;;;;;;62.53;31.38;;;4.30;99.90;;;4.21;56.60;98363.25;6024539;23;20028;-77
2021/12/07 11:03:01;;;;;;;67.13;30.42;;;4.40;99.90;;;4.09;55.75;98362.50;6037445;23;20050;-77
2021/12/07 11:05:41;;;;;;;63.72;29.50;;;4.40;99.90;;;4.03;56.76;98356.22;6047965;23;20029;-77
2021/12/07 11:08:08;;;;;;;63.70;29.45;;;4.40;99.90;;;3.96;57.22;98365.47;6047408;23;20019;-77
2021/12/07 11:10:38;;;;;;;60.30;28.85;;;4.30;99.90;;;3.85;56.86;98359.13;6037170;23;20358;-77
2021/12/07 11:13:15;;;;;;;67.25;31.17;;;4.20;99.90;;;3.78;57.50;98359.25;6037300;23;20023;-77
2021/12/07 11:15:53;;;;;;;69.45;32.17;;;4.10;99.90;;;3.80;57.53;98367.09;6025093;23;20018;-77
2021/12/07 11:18:48;;;;;;;60.80;31.95;;;4.00;99.90;;;3.76;58.03;98364.06;6070562;23;20019;-77
2021/12/07 11:21:16;;;;;;;65.32;29.33;;;4.10;99.90;;;3.69;57.79;98363.41;5979975;23;20102;-77
2021/12/07 11:23:45;;;;;;;68.78;30.85;;;4.00;99.90;;;3.69;58.07;98366.09;6001637;23;20030;-77
2021/12/07 11:31:56;;;;;;;66.55;33.03;;;4.00;99.90;;;3.84;58.26;98365.53;6002989;23;20023;-77
2021/12/07 11:34:36;;;;;;;68.70;30.38;;;4.00;99.90;;;3.86;58.30;98360.75;5987378;23;20677;-77
2021/12/07 11:37:05;;;;;;;80.30;31.10;;;4.00;99.90;;;3.77;58.43;98360.34;6002402;23;20368;-77
2021/12/07 11:39:38;;;;;;;69.07;33.70;;;4.10;99.90;;;3.74;58.35;98368.03;6001737;23;20373;-77
2021/12/07 11:42:27;;;;;;;62.20;30.23;;;4.00;99.90;;;3.65;57.47;98357.69;6004162;23;20020;-77
2021/12/07 11:45:29;;;;;;;62.25;30.98;;;3.90;99.90;;;3.63;58.11;98353.63;6009706;23;20028;-77
2021/12/07 11:48:00;;;;;;;70.75;32.65;;;3.90;99.90;;;3.56;58.69;98355.63;5973577;23;20163;-77
2021/12/07 11:50:37;;;;;;;95.20;41.97;;;3.80;99.90;;;3.52;59.25;98357.97;5987868;23;20131;-77
2021/12/07 11:53:14;;;;;;;91.85;41.33;;;3.80;99.90;;;3.55;59.59;98354.81;6071157;23;20094;-77
2021/12/07 11:55:44;;;;;;;76.38;36.80;;;3.70;99.90;;;3.62;59.06;98358.16;6046503;23;20101;-77
2021/12/07 11:58:10;;;;;;;74.47;34.28;;;3.70;99.90;;;3.56;58.84;98356.47;6037173;23;20015;-77
2021/12/07 12:00:55;;;;;;;82.65;35.05;;;3.70;99.90;;;3.53;59.23;98356.09;6036846;23;20096;-77
2021/12/07 12:03:23;;;;;;;75.80;32.22;;;3.70;99.90;;;3.49;58.43;98369.19;6049993;23;20050;-77
2021/12/07 12:05:50;;;;;;;87.05;37.15;;;3.70;99.90;;;3.49;59.06;98366.50;6036448;23;20054;-77